createdAt,value
2018-05-29T00:01:54.828Z,99.90
2018-05-29T00:04:23.067Z,99.90
2018-05-29T00:06:51.422Z,99.90
2018-05-29T00:09:18.867Z,99.90
2018-05-29T00:11:46.351Z,99.90
2018-05-29T00:14:13.831Z,99.90
2018-05-29T00:16:41.311Z,99.90
2018-05-29T00:19:10.185Z,99.90
2018-05-29T00:21:37.657Z,99.90
2018-05-29T00:24:05.871Z,99.90
2018-05-29T00:26:33.330Z,99.90
2018-05-29T00:29:00.827Z,99.90
2018-05-29T00:31:28.282Z,99.90
2018-05-29T00:33:55.789Z,99.90
2018-05-29T00:36:24.160Z,99.90
2018-05-29T00:38:51.629Z,99.90
2018-05-29T00:41:19.083Z,99.90
2018-05-29T00:43:46.573Z,99.90
2018-05-29T00:46:14.362Z,99.90
2018-05-29T00:48:42.663Z,99.90
2018-05-29T00:51:10.148Z,99.90
2018-05-29T00:53:38.049Z,99.90
2018-05-29T00:56:05.511Z,99.90
2018-05-29T00:58:32.971Z,99.90
2018-05-29T01:01:00.465Z,99.90
2018-05-29T01:03:27.918Z,99.90
2018-05-29T01:05:55.400Z,99.90
2018-05-29T01:08:23.430Z,99.90
2018-05-29T01:10:51.686Z,99.90
2018-05-29T01:13:19.139Z,99.90
2018-05-29T01:15:46.643Z,99.90
2018-05-29T01:18:14.083Z,99.90
2018-05-29T01:20:41.559Z,99.90
2018-05-29T01:23:09.705Z,99.90
2018-05-29T01:25:37.938Z,99.90
2018-05-29T01:28:05.387Z,99.90
2018-05-29T01:30:33.451Z,99.90
2018-05-29T01:33:00.990Z,99.90
2018-05-29T01:35:28.441Z,99.90
2018-05-29T01:37:56.715Z,99.90
2018-05-29T01:40:24.767Z,99.90
2018-05-29T01:42:52.999Z,99.90
2018-05-29T01:45:20.457Z,99.90
2018-05-29T01:47:47.940Z,99.90
2018-05-29T01:50:15.413Z,99.90
2018-05-29T01:52:42.883Z,99.90
2018-05-29T01:55:11.107Z,99.90
2018-05-29T01:57:38.790Z,99.90
2018-05-29T02:00:06.268Z,99.90
2018-05-29T02:02:34.500Z,99.90
2018-05-29T02:05:01.953Z,99.90
2018-05-29T02:07:30.149Z,99.90
2018-05-29T02:09:58.419Z,99.90
2018-05-29T02:12:25.890Z,99.90
2018-05-29T02:14:53.361Z,99.90
2018-05-29T02:17:20.819Z,99.90
2018-05-29T02:19:49.047Z,99.90
2018-05-29T02:22:16.538Z,99.90
2018-05-29T02:24:44.010Z,99.90
2018-05-29T02:27:12.236Z,99.90
2018-05-29T02:29:39.690Z,99.90
2018-05-29T02:32:07.167Z,99.90
2018-05-29T02:34:35.377Z,99.90
2018-05-29T02:37:03.637Z,99.90
2018-05-29T02:39:31.109Z,99.90
2018-05-29T02:41:59.332Z,99.90
2018-05-29T02:44:26.795Z,99.90
2018-05-29T02:46:54.258Z,99.90
2018-05-29T02:49:21.748Z,99.90
2018-05-29T02:51:49.182Z,99.90
2018-05-29T02:54:18.061Z,99.90
2018-05-29T02:56:45.530Z,99.90
2018-05-29T02:59:13.015Z,99.90
2018-05-29T03:01:41.488Z,99.90
2018-05-29T03:04:08.962Z,99.90
2018-05-29T03:06:37.186Z,99.90
2018-05-29T03:09:06.679Z,99.90
2018-05-29T03:11:34.154Z,99.90
2018-05-29T03:14:01.636Z,99.90
2018-05-29T03:16:29.519Z,99.90
2018-05-29T03:18:57.750Z,99.90
2018-05-29T03:21:25.216Z,99.90
2018-05-29T03:23:57.993Z,99.90
2018-05-29T03:26:25.523Z,99.90
2018-05-29T03:28:52.955Z,99.90
2018-05-29T03:31:21.198Z,99.90
2018-05-29T03:33:48.679Z,99.90
2018-05-29T03:36:17.143Z,99.90
2018-05-29T03:38:44.646Z,99.90
2018-05-29T03:41:12.091Z,99.90
2018-05-29T03:43:39.574Z,99.90
2018-05-29T03:46:07.061Z,99.90
2018-05-29T03:48:34.554Z,99.90
2018-05-29T03:51:02.779Z,99.90
2018-05-29T03:53:30.246Z,99.90
2018-05-29T03:55:57.731Z,99.90
2018-05-29T03:58:25.174Z,99.90
2018-05-29T04:00:52.658Z,99.90
2018-05-29T04:03:20.866Z,99.90
2018-05-29T04:05:48.332Z,99.90
2018-05-29T04:08:15.811Z,99.90
2018-05-29T04:10:43.258Z,99.90
2018-05-29T04:13:10.796Z,99.90
2018-05-29T04:15:38.263Z,99.90
2018-05-29T04:18:05.734Z,99.90
2018-05-29T04:20:33.446Z,99.90
2018-05-29T04:23:01.647Z,99.90
2018-05-29T04:25:29.115Z,99.90
2018-05-29T04:27:57.153Z,99.90
2018-05-29T04:30:24.635Z,99.90
2018-05-29T04:32:52.136Z,99.90
2018-05-29T04:35:19.614Z,99.90
2018-05-29T04:37:48.678Z,99.90
2018-05-29T04:40:16.162Z,99.90
2018-05-29T04:42:44.378Z,99.90
2018-05-29T04:45:11.880Z,99.90
2018-05-29T04:47:39.356Z,99.90
2018-05-29T04:50:07.601Z,99.90
2018-05-29T04:52:35.559Z,99.90
2018-05-29T04:55:03.030Z,99.90
2018-05-29T04:57:30.511Z,99.90
2018-05-29T04:59:58.718Z,99.90
2018-05-29T05:02:26.175Z,99.90
2018-05-29T05:04:53.665Z,99.90
2018-05-29T05:07:21.113Z,99.90
2018-05-29T05:09:49.030Z,99.90
2018-05-29T05:12:17.238Z,99.90
2018-05-29T05:14:44.731Z,99.90
2018-05-29T05:17:12.934Z,99.90
2018-05-29T05:19:42.070Z,99.90
2018-05-29T05:22:09.549Z,99.90
2018-05-29T05:24:37.023Z,99.90
2018-05-29T05:27:04.487Z,99.90
2018-05-29T05:29:32.154Z,99.90
2018-05-29T05:31:59.602Z,99.90
2018-05-29T05:34:27.060Z,99.90
2018-05-29T05:36:54.967Z,99.90
2018-05-29T05:39:22.413Z,99.90
2018-05-29T05:41:50.667Z,99.90
2018-05-29T05:44:18.139Z,99.90
2018-05-29T05:46:46.374Z,99.90
2018-05-29T05:49:15.814Z,99.90
2018-05-29T05:51:44.068Z,99.90
2018-05-29T05:54:11.526Z,99.90
2018-05-29T05:56:40.253Z,99.90
2018-05-29T05:59:07.725Z,99.90
2018-05-29T06:01:35.191Z,99.90
2018-05-29T06:04:02.666Z,99.90
2018-05-29T06:06:30.166Z,99.90
2018-05-29T06:08:59.195Z,99.90
2018-05-29T06:11:26.962Z,99.90
2018-05-29T06:13:54.442Z,99.90
2018-05-29T06:16:21.940Z,99.90
2018-05-29T06:18:49.415Z,99.90
2018-05-29T06:21:16.922Z,99.90
2018-05-29T06:23:44.337Z,99.90
2018-05-29T06:26:12.065Z,99.90
2018-05-29T06:28:40.318Z,99.90
2018-05-29T06:31:07.795Z,99.90
2018-05-29T06:33:35.262Z,99.90
2018-05-29T06:36:03.504Z,99.90
2018-05-29T06:38:30.987Z,99.90
2018-05-29T06:40:58.422Z,99.90
2018-05-29T06:43:25.886Z,99.90
2018-05-29T06:45:53.367Z,99.90
2018-05-29T06:48:21.598Z,99.90
2018-05-29T06:50:49.041Z,99.90
2018-05-29T06:53:16.531Z,99.90
2018-05-29T06:55:43.985Z,99.90
2018-05-29T06:58:11.457Z,99.90
2018-05-29T07:00:38.910Z,99.90
2018-05-29T07:03:06.387Z,99.90
2018-05-29T07:05:34.607Z,99.90
2018-05-29T07:08:03.674Z,99.90
2018-05-29T07:10:31.143Z,99.90
2018-05-29T07:12:58.616Z,99.90
2018-05-29T07:15:26.079Z,99.90
2018-05-29T07:17:53.565Z,99.90
2018-05-29T07:20:21.048Z,99.90
2018-05-29T07:22:49.261Z,99.90
2018-05-29T07:25:16.716Z,99.90
2018-05-29T07:27:44.177Z,99.90
2018-05-29T07:30:11.658Z,99.90
2018-05-29T07:32:39.219Z,99.90
2018-05-29T07:35:06.698Z,99.90
2018-05-29T07:37:34.134Z,99.90
2018-05-29T07:40:01.624Z,99.90
2018-05-29T07:42:29.839Z,99.90
2018-05-29T07:44:57.326Z,99.90
2018-05-29T07:47:24.799Z,99.90
2018-05-29T07:49:52.281Z,99.90
2018-05-29T07:52:19.751Z,99.90
2018-05-29T07:54:47.241Z,99.90
2018-05-29T07:57:14.691Z,99.90
2018-05-29T07:59:42.166Z,99.90
2018-05-29T08:02:09.642Z,99.90
2018-05-29T08:04:38.419Z,99.90
2018-05-29T08:07:05.874Z,99.90
2018-05-29T08:09:33.341Z,99.90
2018-05-29T08:12:01.647Z,99.90
2018-05-29T08:14:29.983Z,99.90
2018-05-29T08:16:57.920Z,99.90
2018-05-29T08:19:26.099Z,99.90
2018-05-29T08:21:53.583Z,99.90
2018-05-29T08:24:21.055Z,99.90
2018-05-29T08:26:49.382Z,99.90
2018-05-29T08:29:16.829Z,99.90
2018-05-29T08:31:45.506Z,99.90
2018-05-29T08:34:13.756Z,99.90
2018-05-29T08:36:41.991Z,99.90
2018-05-29T08:39:09.469Z,99.90
2018-05-29T08:41:37.805Z,99.90
2018-05-29T08:44:05.253Z,99.90
2018-05-29T08:46:32.723Z,99.90
2018-05-29T08:49:00.200Z,99.90
2018-05-29T08:51:28.364Z,99.90
2018-05-29T08:53:55.819Z,99.90
2018-05-29T08:56:23.270Z,99.90
2018-05-29T08:58:50.744Z,99.90
2018-05-29T09:01:18.215Z,99.90
2018-05-29T09:03:45.699Z,99.90
2018-05-29T09:06:14.929Z,99.90
2018-05-29T09:08:42.386Z,99.90
2018-05-29T09:11:09.859Z,99.90
2018-05-29T09:13:38.103Z,99.90
2018-05-29T09:16:06.476Z,99.90
2018-05-29T09:18:34.696Z,99.90
2018-05-29T09:21:03.999Z,99.90
2018-05-29T09:23:32.210Z,98.60
2018-05-29T09:26:00.515Z,98.30
2018-05-29T09:28:27.933Z,98.20
2018-05-29T09:30:55.392Z,98.10
2018-05-29T09:33:22.870Z,97.70
2018-05-29T09:35:51.116Z,97.40
2018-05-29T09:38:18.559Z,97.40
2018-05-29T09:40:46.528Z,98.50
2018-05-29T09:43:14.012Z,97.60
2018-05-29T09:45:42.609Z,98.70
2018-05-29T09:48:11.566Z,96.70
2018-05-29T09:50:39.042Z,96.70
2018-05-29T09:53:06.522Z,96.70
2018-05-29T09:55:34.003Z,97.60
2018-05-29T09:58:01.438Z,99.70
2018-05-29T10:00:34.603Z,99.50
2018-05-29T10:03:02.786Z,99.90
2018-05-29T10:05:30.262Z,99.90
2018-05-29T10:07:57.707Z,99.90
2018-05-29T10:10:27.670Z,99.90
2018-05-29T10:12:56.058Z,99.90
2018-05-29T10:15:23.507Z,99.90
2018-05-29T10:17:50.970Z,99.90
2018-05-29T10:20:18.449Z,99.90
2018-05-29T10:22:45.925Z,99.90
2018-05-29T10:25:13.395Z,99.90
2018-05-29T10:27:41.619Z,99.90
2018-05-29T10:30:09.835Z,99.90
2018-05-29T10:32:38.081Z,99.90
2018-05-29T10:35:05.563Z,99.90
2018-05-29T10:37:33.459Z,99.90
2018-05-29T10:40:00.943Z,99.90
2018-05-29T10:42:28.386Z,99.90
2018-05-29T10:44:55.853Z,99.90
2018-05-29T10:47:23.303Z,99.90
2018-05-29T10:49:50.790Z,99.90
2018-05-29T10:52:18.234Z,99.90
2018-05-29T10:54:45.692Z,99.90
2018-05-29T10:57:13.151Z,99.90
2018-05-29T10:59:40.642Z,99.90
2018-05-29T11:02:08.094Z,99.90
2018-05-29T11:04:35.580Z,99.90
2018-05-29T11:07:03.034Z,99.90
2018-05-29T11:09:30.486Z,99.90
2018-05-29T11:11:58.095Z,99.90
2018-05-29T11:14:25.552Z,99.90
2018-05-29T11:16:53.044Z,99.90
2018-05-29T11:19:21.271Z,99.90
2018-05-29T11:21:50.145Z,99.90
2018-05-29T11:24:17.624Z,99.90
2018-05-29T11:26:45.113Z,99.90
2018-05-29T11:29:12.569Z,99.90
2018-05-29T11:31:40.041Z,99.90
2018-05-29T11:34:08.283Z,98.80
2018-05-29T11:36:36.759Z,98.50
2018-05-29T11:39:04.245Z,99.80
2018-05-29T11:41:32.338Z,99.90
2018-05-29T11:44:00.601Z,99.90
2018-05-29T11:46:28.088Z,99.90
2018-05-29T11:48:55.564Z,99.90
2018-05-29T11:51:23.363Z,99.90
2018-05-29T11:53:50.884Z,99.90
2018-05-29T11:56:18.347Z,99.90
2018-05-29T11:58:45.835Z,99.90
2018-05-29T12:01:13.323Z,99.90
2018-05-29T12:03:42.376Z,99.90
2018-05-29T12:06:09.858Z,99.90
2018-05-29T12:08:37.352Z,99.90
2018-05-29T12:11:04.806Z,99.90
2018-05-29T12:13:32.731Z,99.90
2018-05-29T12:16:00.215Z,99.90
2018-05-29T12:18:28.464Z,99.90
2018-05-29T12:20:55.935Z,99.90
2018-05-29T12:23:23.402Z,99.90
2018-05-29T12:25:51.830Z,99.90
2018-05-29T12:28:19.337Z,99.90
2018-05-29T12:30:46.757Z,99.90
2018-05-29T12:33:14.231Z,99.90
2018-05-29T12:35:42.279Z,99.90
2018-05-29T12:38:09.767Z,99.90
2018-05-29T12:40:37.734Z,99.90
2018-05-29T12:43:05.191Z,99.90
2018-05-29T12:45:32.663Z,99.90
2018-05-29T12:48:00.890Z,99.90
2018-05-29T12:50:28.479Z,99.90
2018-05-29T12:52:55.939Z,99.90
2018-05-29T12:55:23.407Z,99.90
2018-05-29T12:57:51.728Z,99.90
2018-05-29T13:00:19.226Z,99.90
2018-05-29T13:02:46.691Z,99.90
2018-05-29T13:05:17.131Z,99.90
2018-05-29T13:07:45.379Z,99.90
2018-05-29T13:10:12.870Z,99.90
2018-05-29T13:12:41.099Z,99.90
2018-05-29T13:15:08.603Z,99.90
2018-05-29T13:17:36.456Z,99.60
2018-05-29T13:20:03.954Z,99.30
2018-05-29T13:22:32.052Z,98.80
2018-05-29T13:24:59.506Z,98.90
2018-05-29T13:27:26.983Z,98.50
2018-05-29T13:29:54.486Z,98.80
2018-05-29T13:32:22.694Z,99.90
2018-05-29T13:34:50.194Z,99.90
2018-05-29T13:37:17.646Z,99.90
2018-05-29T13:39:45.103Z,99.90
2018-05-29T13:42:12.579Z,99.90
2018-05-29T13:44:40.069Z,99.90
2018-05-29T13:47:07.571Z,99.90
2018-05-29T13:49:35.047Z,99.90
2018-05-29T13:54:36.068Z,99.90
2018-05-29T13:57:04.196Z,99.90
2018-05-29T13:59:31.698Z,99.90
2018-05-29T14:01:59.183Z,99.90
2018-05-29T14:04:27.565Z,99.90
2018-05-29T14:06:55.791Z,99.90
2018-05-29T14:09:23.253Z,99.90
2018-05-29T14:11:50.870Z,99.90
2018-05-29T14:14:18.367Z,99.90
2018-05-29T14:16:45.838Z,99.90
2018-05-29T14:19:13.331Z,99.90
2018-05-29T14:21:41.138Z,99.80
2018-05-29T14:24:08.613Z,99.90
2018-05-29T14:26:36.107Z,99.80
2018-05-29T14:29:04.734Z,99.90
2018-05-29T14:31:32.202Z,99.90
2018-05-29T14:33:59.694Z,99.20
2018-05-29T14:36:27.151Z,99.90
2018-05-29T14:38:54.611Z,99.70
2018-05-29T14:41:22.409Z,99.40
2018-05-29T14:43:50.693Z,99.90
2018-05-29T14:46:18.095Z,99.90
2018-05-29T14:48:45.579Z,99.90
2018-05-29T14:51:13.039Z,99.90
2018-05-29T14:53:41.400Z,99.90
2018-05-29T14:56:08.847Z,99.90
2018-05-29T14:58:36.318Z,99.90
2018-05-29T15:01:03.813Z,99.90
2018-05-29T15:03:31.267Z,99.90
2018-05-29T15:05:58.766Z,99.90
2018-05-29T15:08:26.259Z,99.90
2018-05-29T15:10:54.507Z,99.90
2018-05-29T15:13:21.967Z,99.90
2018-05-29T15:15:49.462Z,99.90
2018-05-29T15:18:17.714Z,99.90
2018-05-29T15:20:46.087Z,99.90
2018-05-29T15:23:13.572Z,99.90
2018-05-29T15:25:41.802Z,99.90
2018-05-29T15:28:09.300Z,99.90
2018-05-29T15:30:37.550Z,99.90
2018-05-29T15:33:05.040Z,99.90
2018-05-29T15:35:33.283Z,99.90
2018-05-29T15:38:01.438Z,99.90
2018-05-29T15:40:28.923Z,99.90
2018-05-29T15:42:56.394Z,99.90
2018-05-29T15:45:24.642Z,99.90
2018-05-29T15:47:52.090Z,99.90
2018-05-29T15:50:19.558Z,99.90
2018-05-29T15:52:47.034Z,99.90
2018-05-29T15:55:14.514Z,99.90
2018-05-29T15:57:41.986Z,99.90
2018-05-29T16:00:09.445Z,99.90
2018-05-29T16:02:36.939Z,99.90
2018-05-29T16:05:04.407Z,99.90
2018-05-29T16:07:31.899Z,99.90
2018-05-29T16:10:00.138Z,99.90
2018-05-29T16:12:28.453Z,99.90
2018-05-29T16:14:55.923Z,99.90
2018-05-29T16:17:23.514Z,99.90
2018-05-29T16:19:50.963Z,99.90
2018-05-29T16:22:18.744Z,99.90
2018-05-29T16:24:46.358Z,99.90
2018-05-29T16:27:14.265Z,99.90
2018-05-29T16:29:41.730Z,99.90
2018-05-29T16:32:09.194Z,99.90
2018-05-29T16:34:36.664Z,99.90
2018-05-29T16:37:04.130Z,99.90
2018-05-29T16:39:31.581Z,99.90
2018-05-29T16:41:59.062Z,99.90
2018-05-29T16:44:27.298Z,99.90
2018-05-29T16:46:54.774Z,99.90
2018-05-29T16:49:22.250Z,99.90
2018-05-29T16:51:50.466Z,99.90
2018-05-29T16:54:17.950Z,99.90
2018-05-29T16:56:45.974Z,99.90
2018-05-29T16:59:13.431Z,99.90
2018-05-29T17:01:40.908Z,99.90
2018-05-29T17:04:08.381Z,99.90
2018-05-29T17:06:37.062Z,99.90
2018-05-29T17:09:05.412Z,99.90
2018-05-29T17:11:32.976Z,99.90
2018-05-29T17:14:00.434Z,99.90
2018-05-29T17:16:27.883Z,99.90
2018-05-29T17:18:56.095Z,99.90
2018-05-29T17:21:23.769Z,99.90
2018-05-29T17:23:51.240Z,99.90
2018-05-29T17:26:18.682Z,99.90
2018-05-29T17:28:46.154Z,99.90
2018-05-29T17:31:14.386Z,99.90
2018-05-29T17:33:43.152Z,99.90
2018-05-29T17:36:10.608Z,99.90
2018-05-29T17:38:38.098Z,99.90
2018-05-29T17:41:05.546Z,99.90
2018-05-29T17:43:33.068Z,99.90
2018-05-29T17:46:00.514Z,99.90
2018-05-29T17:48:28.752Z,99.90
2018-05-29T17:50:56.257Z,99.90
2018-05-29T17:53:23.762Z,99.90
2018-05-29T17:55:51.299Z,99.90
2018-05-29T17:58:18.807Z,99.90
2018-05-29T18:00:46.260Z,99.90
2018-05-29T18:03:13.740Z,99.90
2018-05-29T18:05:41.977Z,99.90
2018-05-29T18:08:09.902Z,99.90
2018-05-29T18:10:37.361Z,99.90
2018-05-29T18:13:04.852Z,99.90
2018-05-29T18:15:32.311Z,99.90
2018-05-29T18:17:59.802Z,99.90
2018-05-29T18:20:28.432Z,99.90
2018-05-29T18:22:56.668Z,99.90
2018-05-29T18:25:24.138Z,99.90
2018-05-29T18:27:51.588Z,99.90
2018-05-29T18:30:19.051Z,99.90
2018-05-29T18:32:46.529Z,99.90
2018-05-29T18:35:14.005Z,99.90
2018-05-29T18:37:41.471Z,99.90
2018-05-29T18:40:08.942Z,99.90
2018-05-29T18:42:36.416Z,99.90
2018-05-29T18:45:04.017Z,99.90
2018-05-29T18:47:32.177Z,99.90
2018-05-29T18:50:00.442Z,99.90
2018-05-29T18:52:27.854Z,99.90
2018-05-29T18:54:55.332Z,99.90
2018-05-29T18:57:23.012Z,99.90
2018-05-29T18:59:51.735Z,99.90
2018-05-29T19:02:19.193Z,99.90
2018-05-29T19:04:47.407Z,99.90
2018-05-29T19:07:14.862Z,99.90
2018-05-29T19:09:42.307Z,99.90
2018-05-29T19:12:11.034Z,99.90
2018-05-29T19:14:38.499Z,99.90
2018-05-29T19:17:05.968Z,99.90
2018-05-29T19:19:33.432Z,99.90
2018-05-29T19:22:01.114Z,99.90
2018-05-29T19:24:28.721Z,99.90
2018-05-29T19:26:56.942Z,99.90
2018-05-29T19:29:24.406Z,99.90
2018-05-29T19:31:51.915Z,99.90
2018-05-29T19:34:20.922Z,99.90
2018-05-29T19:36:48.396Z,99.90
2018-05-29T19:39:16.659Z,99.90
2018-05-29T19:41:44.131Z,99.90
2018-05-29T19:44:11.601Z,99.90
2018-05-29T19:46:39.053Z,99.90
2018-05-29T19:49:06.618Z,99.90
2018-05-29T19:51:34.066Z,99.90
2018-05-29T19:54:01.545Z,99.90
2018-05-29T19:56:29.144Z,99.90
2018-05-29T19:58:57.366Z,99.90
2018-05-29T20:01:24.847Z,99.90
2018-05-29T20:03:52.837Z,99.90
2018-05-29T20:06:20.304Z,99.90
2018-05-29T20:08:48.554Z,99.90
2018-05-29T20:11:16.007Z,99.90
2018-05-29T20:13:43.474Z,99.90
2018-05-29T20:16:10.978Z,99.90
2018-05-29T20:18:38.453Z,99.90
2018-05-29T20:21:06.654Z,99.90
2018-05-29T20:23:34.122Z,99.90
2018-05-29T20:26:01.594Z,99.90
2018-05-29T20:28:29.065Z,99.90
2018-05-29T20:30:57.727Z,99.90
2018-05-29T20:33:25.778Z,99.90
2018-05-29T20:35:53.230Z,99.90
2018-05-29T20:38:20.718Z,99.90
2018-05-29T20:40:48.994Z,99.90
2018-05-29T20:43:17.364Z,99.90
2018-05-29T20:45:45.619Z,99.90
2018-05-29T20:48:13.115Z,99.90
2018-05-29T20:50:42.431Z,99.90
2018-05-29T20:53:09.882Z,99.90
2018-05-29T20:55:37.345Z,99.90
2018-05-29T20:58:04.794Z,99.90
2018-05-29T21:00:32.634Z,99.90
2018-05-29T21:03:01.849Z,99.90
2018-05-29T21:05:30.089Z,99.90
2018-05-29T21:07:57.541Z,99.90
2018-05-29T21:10:26.818Z,99.90
2018-05-29T21:12:54.302Z,99.90
2018-05-29T21:15:22.230Z,99.90
2018-05-29T21:17:49.699Z,99.90
2018-05-29T21:20:17.563Z,99.90
2018-05-29T21:22:45.026Z,99.90
2018-05-29T21:25:12.478Z,99.90
2018-05-29T21:27:40.326Z,99.90
2018-05-29T21:30:07.799Z,99.90
2018-05-29T21:32:35.258Z,99.90
2018-05-29T21:35:03.467Z,99.90
2018-05-29T21:37:30.942Z,99.90
2018-05-29T21:39:58.413Z,99.90
2018-05-29T21:42:26.826Z,99.90
2018-05-29T21:44:54.311Z,99.90
2018-05-29T21:47:21.794Z,99.90
2018-05-29T21:49:49.269Z,99.90
2018-05-29T21:52:17.515Z,99.90
2018-05-29T21:54:44.981Z,99.90
2018-05-29T21:57:12.449Z,99.90
2018-05-29T21:59:41.941Z,99.90
2018-05-29T22:02:09.415Z,99.90
2018-05-29T22:04:38.362Z,99.90
2018-05-29T22:07:06.526Z,99.90
2018-05-29T22:09:34.710Z,99.90
2018-05-29T22:12:02.157Z,99.90
2018-05-29T22:14:30.474Z,99.90
2018-05-29T22:16:58.722Z,99.90
2018-05-29T22:19:26.198Z,99.90
2018-05-29T22:21:53.641Z,99.90
2018-05-29T22:24:21.094Z,99.90
2018-05-29T22:26:48.932Z,99.90
2018-05-29T22:29:16.847Z,99.90
2018-05-29T22:31:44.292Z,99.90
2018-05-29T22:34:11.785Z,99.90
2018-05-29T22:36:40.715Z,99.90
2018-05-29T22:39:08.182Z,99.90
2018-05-29T22:41:36.067Z,99.90
2018-05-29T22:44:03.530Z,99.90
2018-05-29T22:46:31.021Z,99.90
2018-05-29T22:48:59.230Z,99.90
2018-05-29T22:51:26.718Z,99.90
2018-05-29T22:53:54.200Z,99.90
2018-05-29T22:56:21.650Z,99.90
2018-05-29T22:58:49.872Z,99.90
2018-05-29T23:01:17.349Z,99.90
2018-05-29T23:03:45.930Z,99.90
2018-05-29T23:06:13.738Z,99.90
2018-05-29T23:08:42.790Z,99.90
2018-05-29T23:11:11.006Z,99.90
2018-05-29T23:13:39.227Z,99.90
2018-05-29T23:16:06.706Z,99.90
2018-05-29T23:18:34.204Z,99.90
2018-05-29T23:21:03.067Z,99.90
2018-05-29T23:23:30.562Z,99.90
2018-05-29T23:25:58.051Z,99.90
2018-05-29T23:28:25.524Z,99.90
2018-05-29T23:30:52.999Z,99.90
2018-05-29T23:33:20.448Z,99.90
2018-05-29T23:35:47.938Z,99.90
2018-05-29T23:38:17.349Z,99.90
2018-05-29T23:40:44.794Z,99.90
2018-05-29T23:43:13.718Z,99.90
2018-05-29T23:45:41.173Z,99.90
2018-05-29T23:48:08.734Z,99.90
2018-05-29T23:50:36.190Z,99.90
2018-05-29T23:53:03.739Z,99.90
2018-05-29T23:55:31.203Z,99.90
2018-05-29T23:57:58.646Z,99.90
